Bordulac, North Dakota
Current Conditions -  °F | °C
As of 11:35 AM on Thursday 27 Nov 2014 (Local Time) from K46D Reporting Station
Overcast Overcast  
Wind Chill: -18°   Ceiling: 11000
Heat Index:   Visibility: 10mi
Dew Point: -4°   Wind: 12mph
Humidity: 85%   Direction: 150°SSE
Pressure: 30.3"   Gusts: NA
Location:  47.4573°N, 99.0752°W
Report Text: K46D 271735Z AUTO 15010KT 10SM OVC110 M18/M20 A3030 RMK AO2
Loading
Personal Weather Stations






























Interactive Weather Map New forecast layout! Learn more

10-Day Weather Forecast

Advertisements
Track Severe Weather on mobile